sensor_id;sensor_type;location;lat;lon;timestamp;temperature;humidity
18712;DHT22;9485;49.386;8.674;2023-02-24T00:03:56;12.70;76.80
18712;DHT22;9485;49.386;8.674;2023-02-24T00:09:20;12.70;76.90
18712;DHT22;9485;49.386;8.674;2023-02-24T00:14:45;12.60;76.90
18712;DHT22;9485;49.386;8.674;2023-02-24T00:20:06;12.60;76.70
18712;DHT22;9485;49.386;8.674;2023-02-24T00:25:29;12.60;77.10
18712;DHT22;9485;49.386;8.674;2023-02-24T00:30:51;12.50;77.10
18712;DHT22;9485;49.386;8.674;2023-02-24T00:36:15;12.50;77.00
18712;DHT22;9485;49.386;8.674;2023-02-24T00:41:43;12.40;77.20
18712;DHT22;9485;49.386;8.674;2023-02-24T00:47:07;12.40;77.30
18712;DHT22;9485;49.386;8.674;2023-02-24T00:52:30;12.40;77.40
18712;DHT22;9485;49.386;8.674;2023-02-24T00:57:51;12.40;77.20
18712;DHT22;9485;49.386;8.674;2023-02-24T01:03:13;12.40;77.20
18712;DHT22;9485;49.386;8.674;2023-02-24T01:08:34;12.30;76.90
18712;DHT22;9485;49.386;8.674;2023-02-24T01:13:56;12.30;76.70
18712;DHT22;9485;49.386;8.674;2023-02-24T01:19:21;12.30;76.70
18712;DHT22;9485;49.386;8.674;2023-02-24T01:24:44;12.30;76.60
18712;DHT22;9485;49.386;8.674;2023-02-24T01:30:07;12.20;76.40
18712;DHT22;9485;49.386;8.674;2023-02-24T01:35:35;12.10;76.20
18712;DHT22;9485;49.386;8.674;2023-02-24T01:40:56;12.00;76.10
18712;DHT22;9485;49.386;8.674;2023-02-24T01:46:17;11.90;76.10
18712;DHT22;9485;49.386;8.674;2023-02-24T01:51:48;11.80;76.80
18712;DHT22;9485;49.386;8.674;2023-02-24T01:57:14;11.70;76.50
18712;DHT22;9485;49.386;8.674;2023-02-24T02:02:42;11.60;76.80
18712;DHT22;9485;49.386;8.674;2023-02-24T02:08:07;11.60;76.90
18712;DHT22;9485;49.386;8.674;2023-02-24T02:13:31;11.60;77.00
18712;DHT22;9485;49.386;8.674;2023-02-24T02:19:10;11.60;76.90
18712;DHT22;9485;49.386;8.674;2023-02-24T02:24:51;11.60;77.50
18712;DHT22;9485;49.386;8.674;2023-02-24T02:36:30;11.60;77.50
18712;DHT22;9485;49.386;8.674;2023-02-24T02:42:04;11.70;77.60
18712;DHT22;9485;49.386;8.674;2023-02-24T02:47:36;11.70;77.60
18712;DHT22;9485;49.386;8.674;2023-02-24T02:53:06;11.70;77.20
18712;DHT22;9485;49.386;8.674;2023-02-24T02:58:33;11.70;77.40
18712;DHT22;9485;49.386;8.674;2023-02-24T03:04:04;11.70;77.50
18712;DHT22;9485;49.386;8.674;2023-02-24T03:09:32;11.70;77.50
18712;DHT22;9485;49.386;8.674;2023-02-24T03:14:59;12.10;77.80
18712;DHT22;9485;49.386;8.674;2023-02-24T03:20:26;11.70;77.60
18712;DHT22;9485;49.386;8.674;2023-02-24T03:25:53;11.70;77.70
18712;DHT22;9485;49.386;8.674;2023-02-24T03:31:24;11.70;77.70
18712;DHT22;9485;49.386;8.674;2023-02-24T03:36:48;11.70;77.70
18712;DHT22;9485;49.386;8.674;2023-02-24T03:42:14;11.60;77.50
18712;DHT22;9485;49.386;8.674;2023-02-24T03:47:38;11.60;77.40
18712;DHT22;9485;49.386;8.674;2023-02-24T03:53:14;11.50;77.50
18712;DHT22;9485;49.386;8.674;2023-02-24T03:59:05;11.50;77.60
18712;DHT22;9485;49.386;8.674;2023-02-24T04:04:38;11.50;77.60
18712;DHT22;9485;49.386;8.674;2023-02-24T04:10:35;11.40;77.60
18712;DHT22;9485;49.386;8.674;2023-02-24T04:16:10;11.40;78.60
18712;DHT22;9485;49.386;8.674;2023-02-24T04:21:39;11.40;78.00
18712;DHT22;9485;49.386;8.674;2023-02-24T04:27:09;11.40;78.00
18712;DHT22;9485;49.386;8.674;2023-02-24T04:32:36;11.50;78.10
18712;DHT22;9485;49.386;8.674;2023-02-24T04:37:57;11.50;78.10
18712;DHT22;9485;49.386;8.674;2023-02-24T04:43:21;11.50;78.10
18712;DHT22;9485;49.386;8.674;2023-02-24T04:48:43;11.50;78.20
18712;DHT22;9485;49.386;8.674;2023-02-24T04:54:04;11.50;78.10
18712;DHT22;9485;49.386;8.674;2023-02-24T04:59:26;11.50;78.20
18712;DHT22;9485;49.386;8.674;2023-02-24T05:04:49;11.50;78.30
18712;DHT22;9485;49.386;8.674;2023-02-24T05:10:10;11.50;78.20
18712;DHT22;9485;49.386;8.674;2023-02-24T05:15:31;11.50;78.20
18712;DHT22;9485;49.386;8.674;2023-02-24T05:20:56;11.50;78.20
18712;DHT22;9485;49.386;8.674;2023-02-24T05:26:35;11.40;78.30
18712;DHT22;9485;49.386;8.674;2023-02-24T05:32:00;11.40;78.30
18712;DHT22;9485;49.386;8.674;2023-02-24T05:37:23;11.40;78.30
18712;DHT22;9485;49.386;8.674;2023-02-24T05:42:44;11.40;78.50
18712;DHT22;9485;49.386;8.674;2023-02-24T05:48:05;11.40;78.40
18712;DHT22;9485;49.386;8.674;2023-02-24T05:53:27;11.40;78.30
18712;DHT22;9485;49.386;8.674;2023-02-24T05:58:48;11.40;78.30
18712;DHT22;9485;49.386;8.674;2023-02-24T06:04:19;11.40;78.30
18712;DHT22;9485;49.386;8.674;2023-02-24T06:09:50;11.40;78.40
18712;DHT22;9485;49.386;8.674;2023-02-24T06:15:12;11.40;78.30
18712;DHT22;9485;49.386;8.674;2023-02-24T06:20:34;11.40;78.40
18712;DHT22;9485;49.386;8.674;2023-02-24T06:26:00;11.40;78.40
18712;DHT22;9485;49.386;8.674;2023-02-24T06:31:22;11.40;78.40
18712;DHT22;9485;49.386;8.674;2023-02-24T06:36:43;11.40;78.40
18712;DHT22;9485;49.386;8.674;2023-02-24T06:42:06;11.40;78.50
18712;DHT22;9485;49.386;8.674;2023-02-24T06:47:28;11.40;78.50
18712;DHT22;9485;49.386;8.674;2023-02-24T06:52:54;11.40;78.70
18712;DHT22;9485;49.386;8.674;2023-02-24T06:58:19;11.40;78.70
18712;DHT22;9485;49.386;8.674;2023-02-24T07:03:45;11.40;78.60
18712;DHT22;9485;49.386;8.674;2023-02-24T07:09:23;11.40;78.40
18712;DHT22;9485;49.386;8.674;2023-02-24T07:14:47;11.40;78.50
18712;DHT22;9485;49.386;8.674;2023-02-24T07:20:11;11.40;78.60
18712;DHT22;9485;49.386;8.674;2023-02-24T07:25:45;11.40;78.60
18712;DHT22;9485;49.386;8.674;2023-02-24T07:31:11;11.40;78.40
18712;DHT22;9485;49.386;8.674;2023-02-24T07:36:35;11.40;78.70
18712;DHT22;9485;49.386;8.674;2023-02-24T07:42:09;11.50;78.70
18712;DHT22;9485;49.386;8.674;2023-02-24T07:47:41;11.60;78.80
18712;DHT22;9485;49.386;8.674;2023-02-24T07:53:03;11.60;78.70
18712;DHT22;9485;49.386;8.674;2023-02-24T07:58:26;11.60;78.60
18712;DHT22;9485;49.386;8.674;2023-02-24T08:04:18;11.70;78.50
18712;DHT22;9485;49.386;8.674;2023-02-24T08:09:57;11.70;78.40
18712;DHT22;9485;49.386;8.674;2023-02-24T08:22:00;11.90;78.50
18712;DHT22;9485;49.386;8.674;2023-02-24T08:28:02;12.00;77.90
18712;DHT22;9485;49.386;8.674;2023-02-24T08:33:36;12.00;78.10
18712;DHT22;9485;49.386;8.674;2023-02-24T08:39:04;12.00;78.10
18712;DHT22;9485;49.386;8.674;2023-02-24T08:44:36;12.10;77.60
18712;DHT22;9485;49.386;8.674;2023-02-24T08:50:24;12.10;77.30
18712;DHT22;9485;49.386;8.674;2023-02-24T08:56:19;12.10;77.00
18712;DHT22;9485;49.386;8.674;2023-02-24T09:02:03;12.20;77.20
18712;DHT22;9485;49.386;8.674;2023-02-24T09:07:45;12.20;77.10
18712;DHT22;9485;49.386;8.674;2023-02-24T09:13:24;12.40;77.30
18712;DHT22;9485;49.386;8.674;2023-02-24T09:18:55;12.60;76.60
18712;DHT22;9485;49.386;8.674;2023-02-24T09:24:32;12.70;76.70
18712;DHT22;9485;49.386;8.674;2023-02-24T09:30:05;12.90;76.40
18712;DHT22;9485;49.386;8.674;2023-02-24T09:35:53;13.00;76.40
18712;DHT22;9485;49.386;8.674;2023-02-24T09:41:37;13.30;75.90
18712;DHT22;9485;49.386;8.674;2023-02-24T09:47:49;13.50;75.30
18712;DHT22;9485;49.386;8.674;2023-02-24T09:53:25;13.70;75.70
18712;DHT22;9485;49.386;8.674;2023-02-24T09:59:12;14.00;74.80
18712;DHT22;9485;49.386;8.674;2023-02-24T10:05:00;14.40;75.00
18712;DHT22;9485;49.386;8.674;2023-02-24T10:10:31;14.90;74.20
18712;DHT22;9485;49.386;8.674;2023-02-24T10:15:57;15.50;73.70
18712;DHT22;9485;49.386;8.674;2023-02-24T10:21:29;16.40;74.70
18712;DHT22;9485;49.386;8.674;2023-02-24T10:27:12;17.20;71.60
18712;DHT22;9485;49.386;8.674;2023-02-24T10:32:46;17.70;67.30
18712;DHT22;9485;49.386;8.674;2023-02-24T10:38:12;17.60;66.60
18712;DHT22;9485;49.386;8.674;2023-02-24T10:43:34;17.30;66.80
18712;DHT22;9485;49.386;8.674;2023-02-24T10:49:10;17.10;67.90
18712;DHT22;9485;49.386;8.674;2023-02-24T10:54:39;17.00;68.10
18712;DHT22;9485;49.386;8.674;2023-02-24T11:00:27;17.20;68.40
18712;DHT22;9485;49.386;8.674;2023-02-24T11:06:23;17.40;69.00
18712;DHT22;9485;49.386;8.674;2023-02-24T11:12:14;17.70;69.00
18712;DHT22;9485;49.386;8.674;2023-02-24T11:18:01;17.80;66.00
18712;DHT22;9485;49.386;8.674;2023-02-24T11:23:32;17.70;66.80
18712;DHT22;9485;49.386;8.674;2023-02-24T11:29:23;17.60;66.60
18712;DHT22;9485;49.386;8.674;2023-02-24T11:35:30;17.70;64.50
18712;DHT22;9485;49.386;8.674;2023-02-24T11:41:11;17.90;63.80
18712;DHT22;9485;49.386;8.674;2023-02-24T11:47:02;17.90;64.40
18712;DHT22;9485;49.386;8.674;2023-02-24T11:53:02;17.90;63.80
18712;DHT22;9485;49.386;8.674;2023-02-24T11:58:47;17.80;63.20
18712;DHT22;9485;49.386;8.674;2023-02-24T12:04:25;17.70;64.30
18712;DHT22;9485;49.386;8.674;2023-02-24T12:09:56;17.70;63.80
18712;DHT22;9485;49.386;8.674;2023-02-24T12:15:23;17.60;63.60
18712;DHT22;9485;49.386;8.674;2023-02-24T12:20:54;17.50;64.10
18712;DHT22;9485;49.386;8.674;2023-02-24T12:26:22;17.50;62.90
18712;DHT22;9485;49.386;8.674;2023-02-24T12:31:59;17.40;63.00
18712;DHT22;9485;49.386;8.674;2023-02-24T12:37:46;17.50;63.80
18712;DHT22;9485;49.386;8.674;2023-02-24T12:43:24;17.80;63.40
18712;DHT22;9485;49.386;8.674;2023-02-24T12:49:08;17.80;63.40
18712;DHT22;9485;49.386;8.674;2023-02-24T12:54:58;17.70;63.00
18712;DHT22;9485;49.386;8.674;2023-02-24T13:00:39;17.50;63.10
18712;DHT22;9485;49.386;8.674;2023-02-24T13:06:22;17.40;64.00
18712;DHT22;9485;49.386;8.674;2023-02-24T13:12:05;17.40;63.30
18712;DHT22;9485;49.386;8.674;2023-02-24T13:17:48;17.40;62.30
18712;DHT22;9485;49.386;8.674;2023-02-24T13:23:20;17.30;62.00
18712;DHT22;9485;49.386;8.674;2023-02-24T13:28:44;17.20;61.90
18712;DHT22;9485;49.386;8.674;2023-02-24T13:34:13;17.00;62.90
18712;DHT22;9485;49.386;8.674;2023-02-24T13:39:50;16.90;62.90
18712;DHT22;9485;49.386;8.674;2023-02-24T13:45:19;16.80;62.60
18712;DHT22;9485;49.386;8.674;2023-02-24T13:51:07;16.60;62.40
18712;DHT22;9485;49.386;8.674;2023-02-24T13:56:44;16.40;62.50
18712;DHT22;9485;49.386;8.674;2023-02-24T14:02:20;16.30;64.10
18712;DHT22;9485;49.386;8.674;2023-02-24T14:07:47;16.40;64.10
18712;DHT22;9485;49.386;8.674;2023-02-24T14:13:15;16.40;64.30
18712;DHT22;9485;49.386;8.674;2023-02-24T14:18:55;16.40;64.10
18712;DHT22;9485;49.386;8.674;2023-02-24T14:24:19;16.50;64.50
18712;DHT22;9485;49.386;8.674;2023-02-24T14:29:48;16.50;65.00
18712;DHT22;9485;49.386;8.674;2023-02-24T14:35:25;16.60;65.00
18712;DHT22;9485;49.386;8.674;2023-02-24T14:40:52;16.60;64.10
18712;DHT22;9485;49.386;8.674;2023-02-24T14:46:15;16.70;64.50
18712;DHT22;9485;49.386;8.674;2023-02-24T14:51:39;16.70;64.10
18712;DHT22;9485;49.386;8.674;2023-02-24T14:57:07;16.60;63.40
18712;DHT22;9485;49.386;8.674;2023-02-24T15:02:37;16.60;63.50
18712;DHT22;9485;49.386;8.674;2023-02-24T15:08:17;16.50;62.80
18712;DHT22;9485;49.386;8.674;2023-02-24T15:13:51;16.40;62.60
18712;DHT22;9485;49.386;8.674;2023-02-24T15:19:24;16.30;63.00
18712;DHT22;9485;49.386;8.674;2023-02-24T15:24:54;16.10;62.40
18712;DHT22;9485;49.386;8.674;2023-02-24T15:30:32;16.00;63.30
18712;DHT22;9485;49.386;8.674;2023-02-24T15:36:00;15.80;63.20
18712;DHT22;9485;49.386;8.674;2023-02-24T15:41:41;15.70;63.30
18712;DHT22;9485;49.386;8.674;2023-02-24T15:47:20;15.60;63.00
18712;DHT22;9485;49.386;8.674;2023-02-24T15:52:46;15.50;60.10
18712;DHT22;9485;49.386;8.674;2023-02-24T15:58:15;15.40;59.40
18712;DHT22;9485;49.386;8.674;2023-02-24T16:03:38;15.30;58.80
18712;DHT22;9485;49.386;8.674;2023-02-24T16:09:00;15.10;58.90
18712;DHT22;9485;49.386;8.674;2023-02-24T16:14:29;14.90;57.80
18712;DHT22;9485;49.386;8.674;2023-02-24T16:19:54;14.80;58.80
18712;DHT22;9485;49.386;8.674;2023-02-24T16:25:28;14.70;58.70
18712;DHT22;9485;49.386;8.674;2023-02-24T16:31:03;14.60;59.10
18712;DHT22;9485;49.386;8.674;2023-02-24T16:36:28;14.50;58.60
18712;DHT22;9485;49.386;8.674;2023-02-24T16:41:50;14.40;59.40
18712;DHT22;9485;49.386;8.674;2023-02-24T16:47:16;14.30;59.20
18712;DHT22;9485;49.386;8.674;2023-02-24T16:52:48;14.20;59.70
18712;DHT22;9485;49.386;8.674;2023-02-24T16:58:10;14.00;59.50
18712;DHT22;9485;49.386;8.674;2023-02-24T17:03:41;13.80;59.50
18712;DHT22;9485;49.386;8.674;2023-02-24T17:09:03;13.70;59.10
18712;DHT22;9485;49.386;8.674;2023-02-24T17:14:24;13.50;59.80
18712;DHT22;9485;49.386;8.674;2023-02-24T17:19:46;13.40;60.10
18712;DHT22;9485;49.386;8.674;2023-02-24T17:25:09;13.20;61.00
18712;DHT22;9485;49.386;8.674;2023-02-24T17:30:34;13.10;60.70
18712;DHT22;9485;49.386;8.674;2023-02-24T17:35:56;13.00;61.00
18712;DHT22;9485;49.386;8.674;2023-02-24T17:41:17;12.80;61.20
18712;DHT22;9485;49.386;8.674;2023-02-24T17:46:38;12.70;61.40
18712;DHT22;9485;49.386;8.674;2023-02-24T17:52:00;12.60;61.50
18712;DHT22;9485;49.386;8.674;2023-02-24T17:57:21;12.50;61.40
18712;DHT22;9485;49.386;8.674;2023-02-24T18:02:42;12.40;61.60
18712;DHT22;9485;49.386;8.674;2023-02-24T18:08:04;12.40;61.70
18712;DHT22;9485;49.386;8.674;2023-02-24T18:13:26;12.40;60.80
18712;DHT22;9485;49.386;8.674;2023-02-24T18:18:47;12.40;60.40
18712;DHT22;9485;49.386;8.674;2023-02-24T18:24:10;12.40;60.60
18712;DHT22;9485;49.386;8.674;2023-02-24T18:29:31;13.10;61.50
18712;DHT22;9485;49.386;8.674;2023-02-24T18:34:52;12.50;60.90
18712;DHT22;9485;49.386;8.674;2023-02-24T18:40:14;12.50;60.20
18712;DHT22;9485;49.386;8.674;2023-02-24T18:45:35;12.50;59.20
18712;DHT22;9485;49.386;8.674;2023-02-24T18:50:57;12.40;58.70
18712;DHT22;9485;49.386;8.674;2023-02-24T18:56:22;12.40;58.00
18712;DHT22;9485;49.386;8.674;2023-02-24T19:01:45;12.30;58.00
18712;DHT22;9485;49.386;8.674;2023-02-24T19:07:06;12.30;57.80
18712;DHT22;9485;49.386;8.674;2023-02-24T19:12:29;12.20;58.80
18712;DHT22;9485;49.386;8.674;2023-02-24T19:17:49;12.10;59.10
18712;DHT22;9485;49.386;8.674;2023-02-24T19:23:10;12.00;59.40
18712;DHT22;9485;49.386;8.674;2023-02-24T19:28:33;11.90;59.50
18712;DHT22;9485;49.386;8.674;2023-02-24T19:33:55;11.80;60.20
18712;DHT22;9485;49.386;8.674;2023-02-24T19:39:18;11.70;61.20
18712;DHT22;9485;49.386;8.674;2023-02-24T19:44:40;11.60;62.30
18712;DHT22;9485;49.386;8.674;2023-02-24T19:50:01;11.40;63.40
18712;DHT22;9485;49.386;8.674;2023-02-24T19:55:21;11.30;64.20
18712;DHT22;9485;49.386;8.674;2023-02-24T20:00:44;10.60;65.00
18712;DHT22;9485;49.386;8.674;2023-02-24T20:06:15;11.00;66.00
18712;DHT22;9485;49.386;8.674;2023-02-24T20:11:38;10.80;66.70
18712;DHT22;9485;49.386;8.674;2023-02-24T20:17:00;10.90;67.30
18712;DHT22;9485;49.386;8.674;2023-02-24T20:22:21;10.50;68.10
18712;DHT22;9485;49.386;8.674;2023-02-24T20:27:42;10.30;68.30
18712;DHT22;9485;49.386;8.674;2023-02-24T20:33:04;10.10;69.10
18712;DHT22;9485;49.386;8.674;2023-02-24T20:38:25;10.00;69.20
18712;DHT22;9485;49.386;8.674;2023-02-24T20:43:47;9.90;69.30
18712;DHT22;9485;49.386;8.674;2023-02-24T20:49:11;9.90;69.70
18712;DHT22;9485;49.386;8.674;2023-02-24T20:54:33;9.80;69.70
18712;DHT22;9485;49.386;8.674;2023-02-24T20:59:54;9.80;69.50
18712;DHT22;9485;49.386;8.674;2023-02-24T21:05:21;9.80;69.70
18712;DHT22;9485;49.386;8.674;2023-02-24T21:10:43;9.80;70.20
18712;DHT22;9485;49.386;8.674;2023-02-24T21:16:06;9.80;70.30
18712;DHT22;9485;49.386;8.674;2023-02-24T21:21:29;9.80;70.40
18712;DHT22;9485;49.386;8.674;2023-02-24T21:26:49;9.80;71.00
18712;DHT22;9485;49.386;8.674;2023-02-24T21:32:10;9.80;70.60
18712;DHT22;9485;49.386;8.674;2023-02-24T21:37:32;9.80;70.70
18712;DHT22;9485;49.386;8.674;2023-02-24T21:42:53;9.80;71.30
18712;DHT22;9485;49.386;8.674;2023-02-24T21:48:13;9.70;71.60
18712;DHT22;9485;49.386;8.674;2023-02-24T21:53:36;9.70;71.80
18712;DHT22;9485;49.386;8.674;2023-02-24T21:58:58;9.70;72.30
18712;DHT22;9485;49.386;8.674;2023-02-24T22:04:21;9.70;72.50
18712;DHT22;9485;49.386;8.674;2023-02-24T22:09:43;9.70;72.70
18712;DHT22;9485;49.386;8.674;2023-02-24T22:15:05;9.70;73.00
18712;DHT22;9485;49.386;8.674;2023-02-24T22:20:26;9.60;73.00
18712;DHT22;9485;49.386;8.674;2023-02-24T22:25:49;9.60;73.40
18712;DHT22;9485;49.386;8.674;2023-02-24T22:31:11;9.60;73.70
18712;DHT22;9485;49.386;8.674;2023-02-24T22:36:34;9.70;74.30
18712;DHT22;9485;49.386;8.674;2023-02-24T22:41:58;9.70;74.60
18712;DHT22;9485;49.386;8.674;2023-02-24T22:47:18;9.70;74.80
18712;DHT22;9485;49.386;8.674;2023-02-24T22:52:39;9.70;75.10
18712;DHT22;9485;49.386;8.674;2023-02-24T22:58:01;9.70;75.30
18712;DHT22;9485;49.386;8.674;2023-02-24T23:03:26;9.70;75.40
18712;DHT22;9485;49.386;8.674;2023-02-24T23:08:49;9.70;75.50
18712;DHT22;9485;49.386;8.674;2023-02-24T23:14:13;9.70;75.60
18712;DHT22;9485;49.386;8.674;2023-02-24T23:19:35;9.70;75.90
18712;DHT22;9485;49.386;8.674;2023-02-24T23:24:56;9.60;76.00
18712;DHT22;9485;49.386;8.674;2023-02-24T23:30:19;9.60;75.90
18712;DHT22;9485;49.386;8.674;2023-02-24T23:35:41;9.60;76.30
18712;DHT22;9485;49.386;8.674;2023-02-24T23:41:06;9.60;76.40
18712;DHT22;9485;49.386;8.674;2023-02-24T23:46:30;9.50;75.90
18712;DHT22;9485;49.386;8.674;2023-02-24T23:51:51;9.50;74.50
18712;DHT22;9485;49.386;8.674;2023-02-24T23:57:12;9.50;74.30
